Time;durP1;ratioP1;P1;durP2;ratioP2;P2;SDS_P1;SDS_P2;PMS_P1;PMS_P2;Temp;Humidity;BMP_temperature;BMP_pressure;BME280_temperature;BME280_humidity;BME280_pressure;Samples;Min_cycle;Max_cycle;Signal;HPM_P1;HPM_P2
2021/01/18 00:02:10;;;;;;;37.98;15.93;;;;;;;-7.40;51.25;100620.23;1660683;86;21633;-53
2021/01/18 00:04:38;;;;;;;36.80;14.78;;;;;;;-7.34;51.00;100616.37;1668590;86;21621;-53
2021/01/18 00:07:06;;;;;;;33.80;13.98;;;;;;;-7.38;50.70;100617.38;1645206;86;21205;-58
2021/01/18 00:09:34;;;;;;;28.23;13.58;;;;;;;-7.36;50.82;100612.84;1669050;86;21602;-53
2021/01/18 00:12:03;;;;;;;29.60;12.93;;;;;;;-7.33;51.19;100616.00;1643354;86;21175;-58
2021/01/18 00:14:31;;;;;;;63.63;25.80;;;;;;;-7.36;51.00;100618.36;1637439;88;21182;-57
2021/01/18 00:16:58;;;;;;;79.92;32.63;;;;;;;-7.26;50.58;100624.94;1637296;87;21595;-58
2021/01/18 00:19:26;;;;;;;61.50;25.12;;;;;;;-7.23;50.43;100624.72;1639997;86;21593;-58
2021/01/18 00:21:54;;;;;;;43.68;18.92;;;;;;;-7.20;50.75;100624.05;1661532;86;21221;-53
2021/01/18 00:24:22;;;;;;;50.88;21.70;;;;;;;-7.32;50.51;100623.75;1669301;86;21197;-58
2021/01/18 00:26:49;;;;;;;45.33;19.55;;;;;;;-7.31;50.94;100625.94;1669022;86;21171;-53
2021/01/18 00:29:17;;;;;;;29.72;13.85;;;;;;;-7.27;50.93;100622.75;1633243;86;21296;-57
2021/01/18 00:31:45;;;;;;;24.80;10.45;;;;;;;-7.24;50.66;100625.52;1664157;86;21617;-58
2021/01/18 00:34:13;;;;;;;21.37;10.90;;;;;;;-7.28;50.60;100630.34;1664253;86;21614;-53
2021/01/18 00:36:48;;;;;;;25.00;10.93;;;;;;;-7.29;50.61;100628.20;1644955;86;21633;-58
2021/01/18 00:39:16;;;;;;;24.60;11.05;;;;;;;-7.19;50.71;100624.13;1660942;86;21170;-53
2021/01/18 00:41:45;;;;;;;21.40;9.50;;;;;;;-7.18;50.46;100620.79;1638752;87;21620;-53
2021/01/18 00:44:12;;;;;;;33.02;15.10;;;;;;;-7.23;50.49;100617.05;1611225;89;21662;-57
2021/01/18 00:46:47;;;;;;;26.27;12.65;;;;;;;-7.22;50.61;100614.12;1664580;86;21623;-58
2021/01/18 00:49:14;;;;;;;22.98;10.63;;;;;;;-7.24;50.67;100619.53;1662075;86;21174;-53
2021/01/18 00:51:43;;;;;;;27.17;10.75;;;;;;;-7.25;51.08;100612.64;1664232;85;21224;-57
2021/01/18 00:54:10;;;;;;;24.82;9.78;;;;;;;-7.19;51.37;100610.47;1664131;86;21332;-59
2021/01/18 00:56:40;;;;;;;24.05;10.18;;;;;;;-7.15;51.27;100597.09;1655590;86;21263;-53
2021/01/18 00:59:09;;;;;;;23.07;9.85;;;;;;;-7.13;51.40;100593.33;1660391;85;21182;-53
2021/01/18 01:01:45;;;;;;;32.73;17.70;;;;;;;-7.07;51.60;100594.62;1809296;77;28106;-56
2021/01/18 01:04:13;;;;;;;27.07;12.28;;;;;;;-7.06;51.55;100592.52;1738069;80;21585;-52
2021/01/18 01:06:40;;;;;;;16.05;8.75;;;;;;;-7.01;51.58;100588.98;1789065;79;21140;-52
2021/01/18 01:09:08;;;;;;;21.37;9.78;;;;;;;-7.02;51.60;100591.05;1762214;81;21613;-52
2021/01/18 01:11:46;;;;;;;22.98;10.80;;;;;;;-7.07;51.66;100584.38;1761940;81;21168;-52
2021/01/18 01:14:14;;;;;;;21.02;8.93;;;;;;;-7.07;51.87;100584.38;1776150;79;21123;-60
2021/01/18 01:16:43;;;;;;;22.45;9.68;;;;;;;-7.06;51.91;100581.00;1699719;83;21332;-59
2021/01/18 01:19:11;;;;;;;24.43;10.23;;;;;;;-7.06;52.03;100584.84;1742082;82;21533;-59
2021/01/18 01:21:39;;;;;;;23.32;11.10;;;;;;;-7.07;51.98;100586.04;1713634;82;21336;-55
2021/01/18 01:24:07;;;;;;;25.50;10.95;;;;;;;-7.10;52.09;100582.01;1736666;81;21174;-60
2021/01/18 01:26:36;;;;;;;21.97;10.23;;;;;;;-7.11;52.24;100587.91;1713810;82;21165;-59
2021/01/18 01:29:04;;;;;;;24.87;11.43;;;;;;;-7.11;52.49;100581.52;1712961;84;21140;-60
2021/01/18 01:31:32;;;;;;;19.05;9.25;;;;;;;-7.07;52.46;100586.04;1713190;84;21206;-55
2021/01/18 01:33:59;;;;;;;21.20;9.58;;;;;;;-7.04;52.48;100586.23;1754448;81;21139;-59
2021/01/18 01:36:28;;;;;;;24.90;11.80;;;;;;;-7.02;52.61;100584.24;1741851;82;21609;-59
2021/01/18 01:38:56;;;;;;;18.77;9.20;;;;;;;-6.98;52.77;100587.89;1688524;84;21562;-55
2021/01/18 01:41:23;;;;;;;25.48;9.63;;;;;;;-6.94;52.94;100578.72;1731898;82;21131;-55
2021/01/18 01:43:51;;;;;;;19.55;8.23;;;;;;;-6.90;53.14;100580.30;1731711;82;21122;-59
2021/01/18 01:46:19;;;;;;;20.25;8.38;;;;;;;-6.85;53.12;100574.58;1710191;83;21579;-59
2021/01/18 01:48:48;;;;;;;19.70;8.63;;;;;;;-6.83;52.80;100571.69;1712385;83;21170;-55
2021/01/18 01:51:15;;;;;;;22.90;10.38;;;;;;;-6.88;53.00;100576.16;1719793;82;21241;-54
2021/01/18 01:53:43;;;;;;;19.70;9.90;;;;;;;-6.84;53.08;100579.78;1752754;82;21175;-59
2021/01/18 01:56:10;;;;;;;18.48;8.35;;;;;;;-6.76;53.17;100579.86;1732902;82;21148;-54
2021/01/18 01:58:38;;;;;;;20.92;8.98;;;;;;;-6.73;52.92;100582.60;1726665;83;21122;-55
2021/01/18 02:01:06;;;;;;;19.20;8.73;;;;;;;-6.70;53.05;100583.17;1720721;82;21566;-53
2021/01/18 02:03:41;;;;;;;19.65;8.55;;;;;;;-6.63;53.29;100580.19;1749129;80;21577;-55
2021/01/18 02:06:10;;;;;;;17.75;8.13;;;;;;;-6.55;53.32;100578.49;1785089;80;21115;-54
2021/01/18 02:08:38;;;;;;;22.35;8.53;;;;;;;-6.50;53.45;100580.52;1784980;80;21124;-60
2021/01/18 02:11:06;;;;;;;20.55;10.03;;;;;;;-6.46;53.47;100581.20;1776975;79;21162;-55
2021/01/18 02:14:03;;;;;;;20.70;9.25;;;;;;;-6.40;53.53;100578.52;1733354;83;21301;-60
2021/01/18 02:16:36;;;;;;;17.48;8.45;;;;;;;-6.38;53.50;100583.34;1779534;81;21135;-59
2021/01/18 02:19:46;;;;;;;21.90;8.80;;;;;;;-6.40;53.53;100583.64;1783233;79;21132;-55
2021/01/18 02:22:52;;;;;;;17.80;9.10;;;;;;;-6.42;53.34;100591.25;1728364;83;21257;-60
2021/01/18 02:25:44;;;;;;;20.08;9.90;;;;;;;-6.45;53.34;100589.37;1757344;81;21139;-54
2021/01/18 02:28:36;;;;;;;23.15;10.80;;;;;;;-6.42;53.41;100585.72;1732598;82;21653;-55
2021/01/18 02:31:31;;;;;;;23.77;10.55;;;;;;;-6.47;53.16;100582.41;1815343;77;22218;-55
2021/01/18 02:34:17;;;;;;;21.93;10.20;;;;;;;-6.61;53.43;100596.53;1762013;80;21142;-59
2021/01/18 02:37:02;;;;;;;24.27;10.10;;;;;;;-6.62;53.69;100592.62;1755023;81;21138;-54
2021/01/18 02:40:07;;;;;;;23.52;9.58;;;;;;;-6.62;53.55;100585.80;1760987;81;21589;-59
2021/01/18 02:42:43;;;;;;;19.07;7.75;;;;;;;-6.60;53.84;100596.13;1762034;81;21103;-55
2021/01/18 02:45:11;;;;;;;18.80;8.85;;;;;;;-6.57;53.94;100589.53;1759822;80;21131;-60
2021/01/18 02:47:43;;;;;;;21.37;9.63;;;;;;;-6.55;53.75;100588.33;1733582;81;21146;-55
2021/01/18 02:50:11;;;;;;;20.68;10.32;;;;;;;-6.53;53.94;100602.11;1731814;81;21435;-59
2021/01/18 02:52:42;;;;;;;20.60;9.58;;;;;;;-6.49;53.86;100588.70;1753749;81;21134;-55
2021/01/18 02:57:51;;;;;;;22.80;11.00;;;;;;;-6.46;53.69;100586.73;1834671;77;22611;-51
2021/01/18 03:00:26;;;;;;;21.82;9.70;;;;;;;-6.48;54.00;100590.88;1784757;80;21592;-52
2021/01/18 03:03:19;;;;;;;22.02;9.63;;;;;;;-6.49;53.54;100593.81;1762264;81;21680;-52
2021/01/18 03:06:14;;;;;;;21.68;9.55;;;;;;;-6.51;53.37;100595.41;1761680;80;21207;-53
2021/01/18 03:08:46;;;;;;;19.80;10.15;;;;;;;-6.67;53.46;100597.85;1742917;81;21586;-59
2021/01/18 03:11:28;;;;;;;18.67;8.08;;;;;;;-6.79;53.72;100601.42;1761535;80;21208;-58
2021/01/18 03:14:08;;;;;;;21.50;9.13;;;;;;;-6.77;53.71;100608.80;1756806;81;21129;-54
2021/01/18 03:16:38;;;;;;;21.40;9.48;;;;;;;-6.73;53.46;100601.80;1751541;82;21162;-54
2021/01/18 03:19:07;;;;;;;18.73;9.03;;;;;;;-6.73;53.59;100600.53;1753716;81;21139;-59
2021/01/18 03:21:35;;;;;;;19.92;9.35;;;;;;;-6.73;53.76;100597.97;1743115;81;21174;-54
2021/01/18 03:24:04;;;;;;;19.02;8.48;;;;;;;-6.77;53.84;100601.12;1761622;81;21143;-59
2021/01/18 03:26:32;;;;;;;18.07;8.28;;;;;;;-6.63;53.77;100603.23;1762179;80;21287;-60
2021/01/18 03:29:01;;;;;;;20.02;8.80;;;;;;;-6.80;53.96;100604.77;1742935;81;21555;-58
2021/01/18 03:31:29;;;;;;;17.30;9.38;;;;;;;-6.68;54.00;100610.16;1761482;80;21103;-54
2021/01/18 03:33:57;;;;;;;17.30;8.53;;;;;;;-6.57;53.67;100602.33;1762255;81;21574;-54
2021/01/18 03:36:24;;;;;;;18.73;9.93;;;;;;;-6.52;53.49;100597.89;1761956;80;21200;-59
2021/01/18 03:38:52;;;;;;;16.70;9.58;;;;;;;-6.58;53.47;100601.84;1739344;81;21541;-59
2021/01/18 03:41:20;;;;;;;18.87;8.35;;;;;;;-6.59;53.67;100608.14;1740759;81;21557;-59
2021/01/18 03:43:47;;;;;;;22.25;10.63;;;;;;;-6.58;53.75;100608.25;1761960;81;21154;-54
2021/01/18 03:46:15;;;;;;;21.52;9.68;;;;;;;-6.54;53.82;100608.43;1743142;81;21192;-54
2021/01/18 03:48:43;;;;;;;26.27;11.60;;;;;;;-6.52;53.81;100605.16;1761507;81;21598;-59
2021/01/18 03:51:11;;;;;;;18.37;9.55;;;;;;;-6.48;53.99;100606.25;1728414;82;21555;-59
2021/01/18 03:53:38;;;;;;;22.80;9.97;;;;;;;-6.43;53.92;100608.69;1724444;82;21178;-55
2021/01/18 03:56:06;;;;;;;21.07;9.38;;;;;;;-6.39;53.97;100611.89;1722593;81;21200;-54
2021/01/18 03:58:34;;;;;;;18.27;9.08;;;;;;;-6.34;54.04;100613.05;1736584;82;21547;-54
2021/01/18 04:01:02;;;;;;;20.62;9.53;;;;;;;-6.28;54.04;100620.24;1754347;80;21230;-59
2021/01/18 04:03:32;;;;;;;20.02;10.90;;;;;;;-6.27;53.64;100619.45;1754577;82;21182;-54
2021/01/18 04:06:00;;;;;;;24.50;10.57;;;;;;;-6.29;53.76;100621.91;1755075;80;21560;-59
2021/01/18 04:08:29;;;;;;;24.40;10.08;;;;;;;-6.30;53.63;100624.39;1753895;82;21854;-59
2021/01/18 04:10:56;;;;;;;21.80;10.05;;;;;;;-6.30;53.71;100623.98;1754121;80;21192;-53
2021/01/18 04:13:29;;;;;;;21.77;9.68;;;;;;;-6.31;53.68;100624.77;1754052;82;21285;-55
2021/01/18 04:15:56;;;;;;;17.52;8.70;;;;;;;-6.31;53.57;100620.92;1725566;81;21177;-54
2021/01/18 04:18:26;;;;;;;25.27;11.25;;;;;;;-6.36;53.49;100630.42;1754292;82;21282;-59
2021/01/18 04:20:54;;;;;;;23.47;11.45;;;;;;;-6.39;53.60;100633.66;1753829;80;21618;-58
2021/01/18 04:23:22;;;;;;;23.73;11.05;;;;;;;-6.38;53.66;100627.75;1754279;82;21562;-59
2021/01/18 04:25:49;;;;;;;54.00;23.90;;;;;;;-6.37;53.58;100633.78;1748427;80;21172;-58
2021/01/18 04:28:17;;;;;;;120.30;43.68;;;;;;;-6.37;53.76;100626.96;1753938;82;21165;-55
2021/01/18 04:30:46;;;;;;;47.90;21.62;;;;;;;-6.35;53.69;100632.20;1754114;82;21696;-58
2021/01/18 04:33:14;;;;;;;28.70;12.70;;;;;;;-6.38;53.74;100635.44;1753882;82;21311;-54
2021/01/18 04:35:41;;;;;;;28.52;13.65;;;;;;;-6.38;53.77;100635.85;1748211;82;21167;-59
2021/01/18 04:38:09;;;;;;;27.90;12.07;;;;;;;-6.44;53.74;100641.09;1753788;82;21577;-54
2021/01/18 04:40:38;;;;;;;28.45;14.25;;;;;;;-6.50;53.69;100641.13;1754153;82;21545;-59
2021/01/18 04:43:09;;;;;;;30.95;13.30;;;;;;;-6.58;53.87;100636.80;1753964;82;21189;-54
2021/01/18 04:45:36;;;;;;;31.07;13.83;;;;;;;-6.63;54.03;100634.38;1705756;83;21293;-59
2021/01/18 04:48:06;;;;;;;31.70;14.28;;;;;;;-6.63;54.18;100639.50;1723968;83;21194;-58
2021/01/18 04:50:34;;;;;;;23.85;10.70;;;;;;;-6.61;54.35;100642.62;1707995;83;21159;-54
2021/01/18 04:53:10;;;;;;;24.65;11.28;;;;;;;-6.54;54.37;100644.29;1732589;82;21582;-55
2021/01/18 04:55:59;;;;;;;28.65;12.53;;;;;;;-6.57;54.29;100647.52;1723846;83;21598;-59
2021/01/18 04:58:29;;;;;;;27.37;12.20;;;;;;;-6.63;54.46;100644.62;1724113;83;21187;-54
2021/01/18 05:01:00;;;;;;;27.85;13.10;;;;;;;-6.62;54.41;100651.52;1724122;83;21123;-60
2021/01/18 05:03:28;;;;;;;35.10;17.80;;;;;;;-6.64;54.49;100656.93;1722858;81;21558;-54
2021/01/18 05:06:13;;;;;;;32.90;15.58;;;;;;;-6.63;54.62;100661.27;1685147;82;21656;-54
2021/01/18 05:09:27;;;;;;;24.70;11.78;;;;;;;-6.65;54.55;100657.31;1720044;83;21159;-54
2021/01/18 05:11:56;;;;;;;22.48;11.53;;;;;;;-6.68;54.57;100668.64;1739976;82;21159;-54
2021/01/18 05:14:23;;;;;;;26.87;11.93;;;;;;;-6.74;54.84;100679.40;1741022;81;21111;-54
2021/01/18 05:16:58;;;;;;;29.35;13.50;;;;;;;-6.75;54.79;100680.56;1648241;85;21168;-54
2021/01/18 05:19:26;;;;;;;32.13;15.75;;;;;;;-6.81;54.95;100684.92;1740366;82;21151;-54
2021/01/18 05:21:56;;;;;;;33.00;14.60;;;;;;;-6.80;55.17;100693.47;1680194;85;21156;-54
2021/01/18 05:24:24;;;;;;;23.47;11.95;;;;;;;-6.75;55.45;100694.27;1740407;82;21123;-59
2021/01/18 05:27:06;;;;;;;18.10;9.10;;;;;;;-6.68;55.45;100695.52;1739277;82;21590;-59
2021/01/18 05:29:36;;;;;;;19.48;8.80;;;;;;;-6.59;55.27;100697.77;1741119;82;21092;-59
2021/01/18 05:32:21;;;;;;;23.57;11.10;;;;;;;-6.57;55.20;100703.87;1737842;80;21596;-59
2021/01/18 05:34:53;;;;;;;25.65;10.40;;;;;;;-6.58;55.18;100709.78;1738161;82;21119;-58
2021/01/18 05:37:21;;;;;;;23.22;10.32;;;;;;;-6.55;55.11;100712.94;1720679;82;21151;-54
2021/01/18 05:39:48;;;;;;;22.98;10.88;;;;;;;-6.55;55.14;100706.12;1724956;82;21135;-54
2021/01/18 05:42:21;;;;;;;19.37;8.38;;;;;;;-6.52;55.87;100701.20;1739308;82;21146;-55
2021/01/18 05:44:48;;;;;;;20.20;9.83;;;;;;;-6.37;56.10;100705.50;1737484;82;21112;-59
2021/01/18 05:47:16;;;;;;;21.93;9.30;;;;;;;-6.30;55.73;100711.50;1740987;81;21590;-59
2021/01/18 05:49:49;;;;;;;16.60;6.17;;;;;;;-6.20;55.93;100711.27;1729010;82;21178;-54
2021/01/18 05:52:30;;;;;;;21.85;8.78;;;;;;;-6.14;55.94;100720.59;1739042;82;21126;-59
2021/01/18 05:55:20;;;;;;;25.37;9.90;;;;;;;-6.08;55.83;100726.50;1725971;81;21135;-54
2021/01/18 05:58:02;;;;;;;22.17;9.58;;;;;;;-6.06;55.57;100730.05;1701421;83;21166;-53
2021/01/18 06:00:35;;;;;;;23.47;11.08;;;;;;;-6.02;55.40;100731.09;1735933;81;21156;-54
2021/01/18 06:03:09;;;;;;;19.12;9.58;;;;;;;-6.08;54.94;100739.31;1728481;83;21308;-54
2021/01/18 06:05:40;;;;;;;31.50;13.62;;;;;;;-6.18;54.21;100744.66;1732297;81;21646;-53
2021/01/18 06:08:17;;;;;;;45.73;21.30;;;;;;;-6.38;54.13;100752.00;1757180;81;21151;-54
2021/01/18 06:10:49;;;;;;;37.78;17.82;;;;;;;-6.56;54.47;100759.42;1757443;80;21677;-59
2021/01/18 06:13:32;;;;;;;30.32;15.55;;;;;;;-6.63;54.48;100764.97;1744412;81;21162;-60
2021/01/18 06:16:14;;;;;;;30.68;14.45;;;;;;;-6.64;54.39;100774.72;1753663;81;21185;-54
2021/01/18 06:19:09;;;;;;;21.90;10.90;;;;;;;-6.67;54.96;100777.95;1734275;81;21268;-54
2021/01/18 06:21:43;;;;;;;16.55;7.37;;;;;;;-6.67;54.70;100787.33;1673625;86;21372;-59
2021/01/18 06:24:23;;;;;;;31.90;14.73;;;;;;;-6.80;54.40;100788.19;1696788;81;21140;-60
2021/01/18 06:27:03;;;;;;;46.42;18.60;;;;;;;-6.84;54.05;100797.36;1729531;81;21320;-60
2021/01/18 06:29:41;;;;;;;39.60;17.37;;;;;;;-6.89;54.39;100794.52;1722174;81;21115;-59
2021/01/18 06:32:12;;;;;;;30.02;12.25;;;;;;;-6.91;54.59;100796.09;1758441;81;21573;-59
2021/01/18 06:34:43;;;;;;;21.85;11.25;;;;;;;-6.88;54.57;100797.95;1740353;80;21289;-59
2021/01/18 06:37:20;;;;;;;20.35;10.82;;;;;;;-6.87;54.34;100803.56;1755164;81;21115;-59
2021/01/18 06:40:02;;;;;;;24.15;11.10;;;;;;;-6.83;54.79;100802.07;1728542;83;21139;-59
2021/01/18 06:42:30;;;;;;;24.20;11.00;;;;;;;-6.84;54.44;100794.80;1736907;81;21572;-58
2021/01/18 06:44:58;;;;;;;24.92;11.12;;;;;;;-6.82;54.58;100801.28;1757827;80;21178;-59
2021/01/18 06:47:33;;;;;;;21.90;10.23;;;;;;;-6.80;54.56;100803.55;1739601;81;21320;-53
2021/01/18 06:50:04;;;;;;;18.27;8.63;;;;;;;-6.78;54.44;100807.09;1747490;81;21731;-54
2021/01/18 06:52:36;;;;;;;22.52;10.38;;;;;;;-6.85;53.76;100814.78;1749175;81;21179;-58
2021/01/18 06:55:07;;;;;;;24.75;12.75;;;;;;;-6.90;54.16;100817.44;1715701;80;21691;-59
2021/01/18 06:57:49;;;;;;;22.80;11.57;;;;;;;-6.93;53.97;100816.86;1759786;81;21473;-58
2021/01/18 07:00:18;;;;;;;28.30;12.63;;;;;;;-6.92;54.09;100822.84;1755261;81;21635;-54
2021/01/18 07:02:58;;;;;;;23.22;11.83;;;;;;;-6.92;54.22;100824.13;1744583;81;21166;-53
2021/01/18 07:05:45;;;;;;;23.10;11.08;;;;;;;-6.90;54.50;100826.02;1761967;80;21143;-54
2021/01/18 07:08:18;;;;;;;21.87;9.88;;;;;;;-6.80;54.52;100824.03;1755272;81;21142;-54
2021/01/18 07:10:48;;;;;;;25.25;12.00;;;;;;;-6.72;54.44;100829.26;1743317;81;21135;-57
2021/01/18 07:13:19;;;;;;;21.12;10.82;;;;;;;-6.51;56.33;100833.59;1725586;81;21626;-59
2021/01/18 07:15:48;;;;;;;25.12;10.98;;;;;;;-6.48;54.93;100837.63;1744539;81;21131;-59
2021/01/18 07:18:16;;;;;;;35.75;10.80;;;;;;;-6.49;55.16;100838.42;1753794;80;21154;-59
2021/01/18 07:20:48;;;;;;;28.17;13.00;;;;;;;-6.45;55.29;100845.92;1738221;81;21701;-59
2021/01/18 07:23:25;;;;;;;28.73;13.08;;;;;;;-6.40;54.97;100844.52;1744580;81;21162;-54
2021/01/18 07:26:25;;;;;;;25.55;11.43;;;;;;;-6.36;55.10;100843.92;1757227;81;21138;-54
2021/01/18 07:28:57;;;;;;;26.45;12.18;;;;;;;-6.26;55.10;100842.85;1740162;81;21177;-55
2021/01/18 07:31:28;;;;;;;21.27;10.68;;;;;;;-6.15;55.17;100844.39;1738929;81;21175;-55
2021/01/18 07:34:00;;;;;;;40.43;19.05;;;;;;;-6.08;54.95;100838.37;1731131;82;21163;-54
2021/01/18 07:36:32;;;;;;;29.77;13.83;;;;;;;-6.08;54.67;100840.55;1731152;82;21490;-54
2021/01/18 07:39:02;;;;;;;26.10;11.08;;;;;;;-6.05;54.60;100849.72;1731036;81;21141;-60
2021/01/18 07:41:37;;;;;;;21.12;9.78;;;;;;;-6.01;54.67;100846.94;1725700;83;21313;-59
2021/01/18 07:44:35;;;;;;;28.62;11.57;;;;;;;-5.95;54.21;100841.26;1725221;83;21218;-59
2021/01/18 07:47:06;;;;;;;22.77;10.65;;;;;;;-5.95;54.43;100842.16;1714552;81;21170;-60
2021/01/18 07:49:43;;;;;;;21.80;10.65;;;;;;;-5.90;54.56;100838.20;1744317;81;21147;-60
2021/01/18 07:52:26;;;;;;;20.70;9.58;;;;;;;-5.88;54.53;100849.44;1761309;81;21281;-60
2021/01/18 07:54:55;;;;;;;17.95;9.10;;;;;;;-5.80;54.34;100852.47;1761259;80;21135;-60
2021/01/18 07:57:49;;;;;;;22.45;9.73;;;;;;;-5.78;54.11;100853.86;1756251;81;21163;-60
2021/01/18 08:00:25;;;;;;;19.27;8.90;;;;;;;-5.76;54.12;100857.00;1779183;80;21279;-60
2021/01/18 08:03:13;;;;;;;22.62;10.03;;;;;;;-5.82;53.40;100851.48;1684745;85;21207;-59
2021/01/18 08:05:43;;;;;;;21.77;8.30;;;;;;;-5.88;53.16;100853.66;1759172;81;21203;-59
2021/01/18 08:08:19;;;;;;;19.05;9.20;;;;;;;-5.89;53.53;100856.64;1734008;82;21156;-59
2021/01/18 08:11:02;;;;;;;21.25;9.10;;;;;;;-5.80;54.16;100860.16;1737665;81;21615;-58
2021/01/18 08:13:43;;;;;;;24.67;10.45;;;;;;;-5.65;53.94;100867.91;1733867;83;21202;-59
2021/01/18 08:16:30;;;;;;;22.30;8.40;;;;;;;-5.58;53.96;100862.77;1745120;81;21627;-59
2021/01/18 08:19:10;;;;;;;27.50;12.95;;;;;;;-5.49;54.10;100862.02;1662896;85;21150;-59
2021/01/18 08:21:42;;;;;;;25.37;10.18;;;;;;;-5.38;54.14;100862.69;1702486;83;21157;-59
2021/01/18 08:24:20;;;;;;;30.57;12.05;;;;;;;-5.28;53.78;100868.83;1674235;84;21175;-60
2021/01/18 08:27:10;;;;;;;24.77;11.68;;;;;;;-5.23;53.71;100868.71;1703192;83;21171;-59
2021/01/18 08:29:53;;;;;;;25.92;11.25;;;;;;;-5.32;53.12;100874.98;1755272;80;21131;-59
2021/01/18 08:32:34;;;;;;;23.42;10.40;;;;;;;-5.25;53.08;100871.58;1741018;81;21265;-54
2021/01/18 08:35:22;;;;;;;29.10;14.83;;;;;;;-5.20;52.69;100875.73;1755784;81;21189;-55
2021/01/18 08:38:07;;;;;;;25.85;12.95;;;;;;;-5.19;54.01;100877.50;1742366;81;21132;-55
2021/01/18 08:40:51;;;;;;;25.40;11.70;;;;;;;-5.12;53.18;100882.59;1734208;81;21290;-59
2021/01/18 08:43:23;;;;;;;24.12;10.38;;;;;;;-5.09;52.58;100881.48;1656070;85;21183;-59
2021/01/18 08:45:55;;;;;;;19.70;9.40;;;;;;;-5.12;51.80;100881.30;1734113;82;21205;-54
2021/01/18 08:48:29;;;;;;;26.42;11.25;;;;;;;-5.23;52.22;100884.11;1733946;83;21155;-54
2021/01/18 08:50:58;;;;;;;27.02;10.38;;;;;;;-5.19;52.45;100877.50;1709859;83;21571;-54
2021/01/18 08:53:46;;;;;;;21.97;9.28;;;;;;;-5.13;52.42;100866.31;1751725;81;21163;-54
2021/01/18 08:56:30;;;;;;;18.52;8.95;;;;;;;-4.99;52.06;100862.37;1743112;81;21189;-54
2021/01/18 08:58:58;;;;;;;45.20;19.67;;;;;;;-4.96;56.30;100862.55;1732762;82;21716;-54
2021/01/18 09:01:30;;;;;;;18.48;9.43;;;;;;;-4.96;56.30;100862.55;1739231;81;21690;-55
2021/01/18 09:04:07;;;;;;;;;;;;;;;-4.86;52.45;100863.98;1750543;81;21598;-55
2021/01/18 09:06:47;;;;;;;22.52;10.93;;;;;;;-4.88;52.43;100864.30;1734720;81;20119;-61
2021/01/18 09:09:20;;;;;;;23.07;9.15;;;;;;;-4.84;52.74;100859.80;1715857;83;21199;-55
2021/01/18 09:11:48;;;;;;;20.30;10.25;;;;;;;-4.75;52.49;100855.20;1644209;85;21323;-55
2021/01/18 09:14:20;;;;;;;20.70;10.80;;;;;;;-4.75;52.24;100850.47;1761566;81;21638;-60
2021/01/18 09:16:48;;;;;;;19.52;9.80;;;;;;;-4.73;51.39;100847.18;1679848;85;21764;-55
2021/01/18 09:19:18;;;;;;;22.45;10.68;;;;;;;-4.73;51.39;100847.18;1761416;81;21705;-55
2021/01/18 09:21:47;;;;;;;;;;;;;;;-4.77;51.59;100842.66;1684521;85;21567;-55
2021/01/18 09:24:14;;;;;;;21.95;10.40;;;;;;;-4.75;51.59;100841.48;1675624;84;20446;-60
2021/01/18 09:26:43;;;;;;;28.17;11.45;;;;;;;-4.72;51.97;100838.67;1683403;84;21199;-60
2021/01/18 09:29:11;;;;;;;21.10;10.03;;;;;;;-4.58;51.59;100837.30;1677764;85;21191;-55
2021/01/18 09:31:40;;;;;;;21.37;8.73;;;;;;;-4.58;51.59;100837.30;1676744;85;21195;-55
2021/01/18 09:34:12;;;;;;;20.57;10.32;;;;;;;-4.55;51.52;100832.34;1676530;85;21353;-55
2021/01/18 09:36:43;;;;;;;23.10;10.23;;;;;;;-4.49;51.28;100837.41;1676493;85;21215;-55
2021/01/18 09:39:21;;;;;;;19.75;9.20;;;;;;;-4.51;50.92;100839.00;1676727;85;21140;-60
2021/01/18 09:41:54;;;;;;;22.05;10.72;;;;;;;-4.51;50.92;100844.14;1678231;85;21578;-55
2021/01/18 09:44:23;;;;;;;18.92;8.23;;;;;;;-4.53;51.40;100840.59;1699440;84;21188;-61
2021/01/18 09:46:56;;;;;;;23.20;12.58;;;;;;;-4.46;51.00;100838.00;1699728;84;21178;-56
2021/01/18 09:49:26;;;;;;;22.65;12.18;;;;;;;-4.43;51.35;100832.12;1760386;81;21262;-56
2021/01/18 09:51:57;;;;;;;25.72;10.85;;;;;;;-4.41;50.54;100829.25;1761488;81;21599;-60
2021/01/18 09:54:26;;;;;;;19.00;10.23;;;;;;;-4.39;50.57;100833.66;1681784;85;21206;-55
2021/01/18 09:56:55;;;;;;;19.55;10.38;;;;;;;-4.40;50.90;100841.30;1761180;81;21307;-56
2021/01/18 09:59:27;;;;;;;20.32;10.45;;;;;;;-4.40;50.90;100841.30;1676738;84;21148;-60
2021/01/18 10:01:55;;;;;;;26.85;12.18;;;;;;;-4.52;51.16;100849.21;1683555;85;21235;-60
2021/01/18 10:04:24;;;;;;;22.00;11.20;;;;;;;-4.51;51.19;100852.27;1687456;85;21582;-55
2021/01/18 10:07:02;;;;;;;17.10;8.63;;;;;;;-4.50;51.11;100849.77;1679718;84;21309;-55
2021/01/18 10:09:33;;;;;;;21.97;10.48;;;;;;;-4.55;50.77;100842.20;1659711;86;21170;-60
2021/01/18 10:12:05;;;;;;;17.75;9.15;;;;;;;-4.37;50.79;100850.05;1663463;84;21183;-60
2021/01/18 10:14:34;;;;;;;20.10;9.85;;;;;;;-4.45;50.94;100855.56;1657356;84;21148;-55
2021/01/18 10:17:06;;;;;;;20.50;10.72;;;;;;;-4.51;50.91;100859.98;1672802;84;21206;-55
2021/01/18 10:19:37;;;;;;;21.62;10.32;;;;;;;-4.47;50.80;100854.22;1683342;85;21351;-55
2021/01/18 10:22:18;;;;;;;24.50;10.45;;;;;;;-4.49;50.68;100855.81;1684098;85;21163;-53
2021/01/18 10:24:59;;;;;;;20.70;10.93;;;;;;;-4.47;51.85;100858.06;1687212;84;21577;-55
2021/01/18 10:27:31;;;;;;;18.98;9.90;;;;;;;-4.49;50.64;100855.81;1689376;84;21153;-56
2021/01/18 10:30:15;;;;;;;24.07;9.85;;;;;;;-4.56;50.35;100857.13;1684555;85;21167;-55
2021/01/18 10:32:45;;;;;;;20.02;10.48;;;;;;;-4.44;50.30;100868.52;1685637;85;21287;-54
2021/01/18 10:35:26;;;;;;;22.00;10.00;;;;;;;-4.44;50.30;100868.52;1711544;84;21219;-54
2021/01/18 10:37:55;;;;;;;24.80;10.93;;;;;;;-4.46;50.16;100866.27;1687047;85;21194;-55
2021/01/18 10:54:23;;;;;;;27.37;13.88;;;;;;;-4.05;49.52;100865.10;1685245;85;21119;-55
2021/01/18 10:56:54;;;;;;;25.08;11.95;;;;;;;-4.01;49.86;100861.00;1685915;84;21595;-55
2021/01/18 11:12:42;;;;;;;21.97;10.00;;;;;;;-3.95;49.68;100872.91;1656179;86;21195;-55
2021/01/18 11:15:12;;;;;;;24.45;11.90;;;;;;;-3.97;49.36;100868.50;1692719;83;21172;-59
2021/01/18 11:17:40;;;;;;;20.82;12.05;;;;;;;-4.02;49.68;100870.80;1764038;81;21183;-59
2021/01/18 11:20:11;;;;;;;24.47;11.55;;;;;;;-3.99;49.85;100876.11;1675172;85;21205;-55
2021/01/18 11:22:39;;;;;;;20.47;10.77;;;;;;;-4.01;49.35;100871.28;1658825;86;21228;-55
2021/01/18 11:25:08;;;;;;;17.85;9.63;;;;;;;-4.06;48.40;100876.58;1637672;85;21488;-55
2021/01/18 11:27:36;;;;;;;22.80;11.43;;;;;;;-4.23;47.90;100870.12;1679842;84;21191;-59
2021/01/18 11:30:06;;;;;;;29.32;13.70;;;;;;;-4.39;48.39;100880.33;1657841;84;21296;-55
2021/01/18 11:32:34;;;;;;;21.68;11.05;;;;;;;-4.53;48.47;100883.00;1678038;85;21168;-59
2021/01/18 11:35:04;;;;;;;25.20;12.15;;;;;;;-4.66;48.04;100883.98;1681411;85;21259;-59
2021/01/18 11:37:35;;;;;;;;;;;;;;;-4.74;48.73;100881.37;1688408;84;21147;-59
2021/01/18 11:40:05;;;;;;;21.30;9.90;;;;;;;-4.69;49.26;100882.94;1683052;85;20327;-59
2021/01/18 11:42:35;;;;;;;22.58;11.18;;;;;;;-4.72;48.29;100877.20;1682153;84;21565;-59
2021/01/18 11:45:06;;;;;;;30.40;13.38;;;;;;;-4.73;48.76;100875.85;1678104;85;21314;-54
2021/01/18 11:47:37;;;;;;;21.45;10.32;;;;;;;-4.69;49.10;100875.23;1684447;84;21203;-55
2021/01/18 11:50:09;;;;;;;26.80;12.68;;;;;;;-4.67;48.29;100868.50;1686995;85;21185;-54
2021/01/18 11:52:47;;;;;;;26.37;11.43;;;;;;;-4.61;47.38;100862.81;1686568;84;21208;-59
2021/01/18 11:55:17;;;;;;;24.12;13.13;;;;;;;-4.65;48.17;100861.77;1682935;84;21289;-59
2021/01/18 11:57:47;;;;;;;23.35;11.63;;;;;;;-4.56;48.44;100858.41;1672224;85;21183;-59
2021/01/18 12:00:29;;;;;;;25.25;12.43;;;;;;;-4.46;48.00;100863.69;1733245;82;21285;-59
2021/01/18 12:02:59;;;;;;;29.48;12.53;;;;;;;-4.42;48.70;100854.45;1733527;83;21539;-59
2021/01/18 12:05:28;;;;;;;26.90;13.50;;;;;;;-4.35;47.46;100866.44;1742259;81;21147;-58
2021/01/18 12:08:02;;;;;;;22.40;11.22;;;;;;;-4.39;47.90;100857.20;1755052;81;21119;-59
2021/01/18 12:10:32;;;;;;;24.23;10.50;;;;;;;-4.47;47.19;100858.06;1685778;84;21590;-59